Time;durP1;ratioP1;P1;durP2;ratioP2;P2;SDS_P1;SDS_P2;PMS_P1;PMS_P2;Temp;Humidity;BMP_temperature;BMP_pressure;BME280_temperature;BME280_humidity;BME280_pressure;Samples;Min_cycle;Max_cycle;Signal;HPM_P1;HPM_P2
2023/06/01 00:01:40;;;;;;;2.00;1.17;;;24.10;54.00;;;;;;6399549;27;20035;-57
2023/06/01 00:04:42;;;;;;;1.20;1.10;;;24.30;53.70;;;;;;6399516;27;20136;-57
2023/06/01 00:07:44;;;;;;;1.58;1.30;;;24.50;53.80;;;;;;6402017;27;20039;-55
2023/06/01 00:10:45;;;;;;;1.10;0.93;;;24.40;53.70;;;;;;6399131;27;20047;-58
2023/06/01 00:13:48;;;;;;;1.20;1.08;;;24.40;53.70;;;;;;6401362;27;20050;-58
2023/06/01 00:16:50;;;;;;;0.98;0.88;;;24.10;53.50;;;;;;6402462;27;20046;-57
2023/06/01 00:19:53;;;;;;;1.30;1.00;;;24.50;53.70;;;;;;6409008;27;20035;-58
2023/06/01 00:22:55;;;;;;;1.42;1.13;;;24.30;53.40;;;;;;6408351;27;20043;-56
2023/06/01 00:25:56;;;;;;;1.38;1.00;;;24.50;53.60;;;;;;6401260;27;20122;-55
2023/06/01 00:28:58;;;;;;;1.80;1.05;;;24.50;53.60;;;;;;6397305;27;20115;-57
2023/06/01 00:32:00;;;;;;;1.52;1.08;;;24.50;53.50;;;;;;6401667;27;20579;-57
2023/06/01 00:35:02;;;;;;;1.10;1.00;;;24.40;53.70;;;;;;6404859;27;20454;-55
2023/06/01 00:38:04;;;;;;;1.30;1.20;;;24.30;59.60;;;;;;6410090;27;20033;-53
2023/06/01 00:41:06;;;;;;;1.33;1.10;;;24.30;52.90;;;;;;6411797;27;20070;-56
2023/06/01 00:44:07;;;;;;;1.10;1.00;;;24.40;52.90;;;;;;6405623;27;20043;-57
2023/06/01 00:47:09;;;;;;;1.10;1.00;;;24.30;52.70;;;;;;6401567;27;20039;-57
2023/06/01 00:50:12;;;;;;;2.22;1.05;;;23.80;52.60;;;;;;6405176;27;20043;-55
2023/06/01 00:53:17;;;;;;;0.95;0.93;;;24.40;52.70;;;;;;6403543;27;20077;-56
2023/06/01 00:56:18;;;;;;;1.10;1.00;;;24.50;52.80;;;;;;6405325;27;20049;-56
2023/06/01 00:59:21;;;;;;;1.20;1.10;;;24.10;52.50;;;;;;6405447;27;20060;-56
2023/06/01 01:02:25;;;;;;;1.00;0.90;;;24.00;52.50;;;;;;6408008;27;20039;-57
2023/06/01 01:05:27;;;;;;;0.90;0.65;;;24.10;52.50;;;;;;6406780;27;20063;-56
2023/06/01 01:08:35;;;;;;;1.13;1.00;;;24.30;52.60;;;;;;6396577;27;20035;-57
2023/06/01 01:11:39;;;;;;;1.45;1.10;;;24.30;52.50;;;;;;6393411;27;20031;-58
2023/06/01 01:14:50;;;;;;;1.30;1.00;;;24.40;52.50;;;;;;6393088;27;20095;-58
2023/06/01 01:18:01;;;;;;;1.10;1.00;;;24.40;52.60;;;;;;6392289;27;20038;-58
2023/06/01 01:21:21;;;;;;;0.75;0.70;;;24.30;52.40;;;;;;6394073;27;20648;-58
2023/06/01 01:24:35;;;;;;;1.38;0.88;;;24.10;52.40;;;;;;6391905;27;20038;-58
2023/06/01 01:27:43;;;;;;;1.40;0.80;;;24.40;52.40;;;;;;6372237;27;20441;-58
2023/06/01 01:30:46;;;;;;;1.25;0.90;;;24.40;52.40;;;;;;6391262;27;20572;-58
2023/06/01 01:33:51;;;;;;;1.17;1.00;;;24.50;52.50;;;;;;6390481;27;20056;-58
2023/06/01 01:36:52;;;;;;;1.13;1.00;;;24.30;52.40;;;;;;6393689;27;20726;-58
2023/06/01 01:39:54;;;;;;;1.02;0.75;;;24.30;52.50;;;;;;6393351;27;20031;-58
2023/06/01 01:42:56;;;;;;;1.17;0.85;;;24.50;52.50;;;;;;6392603;27;20077;-57
2023/06/01 01:46:07;;;;;;;0.98;0.82;;;24.40;52.40;;;;;;6392753;27;20035;-58
2023/06/01 01:49:18;;;;;;;1.40;1.30;;;24.20;52.20;;;;;;6393830;27;20030;-57
2023/06/01 01:52:25;;;;;;;1.15;0.98;;;24.30;52.20;;;;;;6374909;27;20050;-58
2023/06/01 01:55:30;;;;;;;1.10;0.90;;;24.00;52.00;;;;;;6374809;27;20509;-58
2023/06/01 01:58:32;;;;;;;1.52;0.93;;;24.30;52.20;;;;;;6392971;27;20050;-58
2023/06/01 02:01:37;;;;;;;0.70;0.70;;;24.30;52.20;;;;;;6393117;27;20046;-58
2023/06/01 02:04:40;;;;;;;1.42;0.80;;;24.40;52.20;;;;;;6393338;27;20050;-58
2023/06/01 02:07:44;;;;;;;1.23;0.90;;;24.10;52.00;;;;;;6393555;27;20073;-58
2023/06/01 02:10:46;;;;;;;1.00;0.80;;;24.20;52.00;;;;;;6392816;27;20554;-58
2023/06/01 02:13:48;;;;;;;1.10;1.00;;;24.30;52.10;;;;;;6393399;27;20030;-57
2023/06/01 02:16:50;;;;;;;1.30;0.88;;;24.00;52.00;;;;;;6393520;27;20080;-58
2023/06/01 02:19:52;;;;;;;1.17;0.90;;;24.40;52.10;;;;;;6392391;27;20034;-58
2023/06/01 02:22:53;;;;;;;0.93;0.82;;;24.40;52.20;;;;;;6392515;27;20060;-58
2023/06/01 02:25:55;;;;;;;0.80;0.80;;;24.40;52.20;;;;;;6391977;27;20110;-58
2023/06/01 02:28:56;;;;;;;0.88;0.63;;;24.10;52.10;;;;;;6392703;27;20039;-58
2023/06/01 02:31:58;;;;;;;1.50;0.85;;;24.20;52.00;;;;;;6391571;27;20030;-55
2023/06/01 02:35:00;;;;;;;1.02;0.80;;;24.20;52.00;;;;;;6391717;27;20092;-58
2023/06/01 02:38:02;;;;;;;0.88;0.73;;;24.30;52.70;;;;;;6392462;27;20043;-58
2023/06/01 02:41:08;;;;;;;1.67;0.88;;;24.30;52.10;;;;;;6392507;27;20039;-59
2023/06/01 02:44:10;;;;;;;1.10;0.80;;;24.30;52.00;;;;;;6391154;27;20043;-58
2023/06/01 02:47:13;;;;;;;0.90;0.80;;;23.90;51.90;;;;;;6390945;27;20057;-58
2023/06/01 02:50:14;;;;;;;0.90;0.77;;;23.80;51.70;;;;;;6391759;27;20050;-56
2023/06/01 02:53:21;;;;;;;1.58;1.00;;;24.30;52.10;;;;;;6373582;27;20127;-58
2023/06/01 02:56:23;;;;;;;1.00;0.70;;;24.30;52.10;;;;;;6392217;27;20038;-58
2023/06/01 02:59:36;;;;;;;0.68;0.65;;;24.30;52.10;;;;;;6391907;27;20038;-57
2023/06/01 03:02:39;;;;;;;1.05;0.80;;;24.20;52.00;;;;;;6392221;27;20035;-56
2023/06/01 03:05:42;;;;;;;1.05;0.80;;;24.20;52.00;;;;;;6391992;27;20039;-58
2023/06/01 03:09:05;;;;;;;1.10;0.90;;;24.20;52.00;;;;;;6392101;27;20077;-58
2023/06/01 03:12:22;;;;;;;0.88;0.73;;;23.70;51.90;;;;;;6391917;27;20493;-58
2023/06/01 03:15:27;;;;;;;1.42;1.00;;;23.80;51.90;;;;;;6391462;27;20031;-58
2023/06/01 03:18:29;;;;;;;1.05;0.90;;;24.10;52.10;;;;;;6393638;27;20121;-55
2023/06/01 03:21:32;;;;;;;0.98;0.88;;;24.20;52.10;;;;;;6409743;27;20067;-56
2023/06/01 03:24:36;;;;;;;1.33;1.10;;;24.30;52.20;;;;;;6409467;27;20035;-56
2023/06/01 03:27:38;;;;;;;1.02;0.80;;;24.10;52.00;;;;;;6409802;27;20029;-56
2023/06/01 03:30:42;;;;;;;1.30;1.10;;;24.00;52.00;;;;;;6408814;27;20031;-53
2023/06/01 03:33:45;;;;;;;1.00;0.90;;;24.20;52.10;;;;;;6409801;27;20039;-56
2023/06/01 03:36:47;;;;;;;1.48;1.00;;;24.50;52.20;;;;;;6411199;27;20064;-54
2023/06/01 03:39:49;;;;;;;0.80;0.80;;;24.20;51.90;;;;;;6410982;27;20653;-56
2023/06/01 03:42:53;;;;;;;1.33;1.02;;;24.20;52.20;;;;;;6411857;27;20037;-54
2023/06/01 03:45:55;;;;;;;1.15;1.00;;;24.10;52.10;;;;;;6410917;27;20114;-56
2023/06/01 03:48:57;;;;;;;1.42;0.90;;;24.10;52.00;;;;;;6414351;27;20052;-56
2023/06/01 03:51:59;;;;;;;2.03;1.58;;;24.10;52.00;;;;;;6413792;27;20042;-56
2023/06/01 03:55:08;;;;;;;1.20;0.80;;;24.00;52.20;;;;;;6415609;27;20111;-57
2023/06/01 03:58:30;;;;;;;0.95;0.80;;;24.00;51.80;;;;;;6415589;27;20125;-54
2023/06/01 04:01:33;;;;;;;1.50;1.10;;;24.00;52.10;;;;;;6416223;27;20049;-57
2023/06/01 04:04:40;;;;;;;1.30;1.00;;;23.90;52.00;;;;;;6416142;27;20026;-55
2023/06/01 04:07:45;;;;;;;1.40;1.30;;;24.00;52.10;;;;;;6414833;27;20034;-57
2023/06/01 04:10:47;;;;;;;1.70;1.17;;;24.00;52.10;;;;;;6414098;27;20046;-56
2023/06/01 04:13:48;;;;;;;1.25;1.15;;;24.10;52.30;;;;;;6415088;27;20237;-54
2023/06/01 04:16:52;;;;;;;1.17;1.08;;;24.00;52.20;;;;;;6415069;27;20043;-55
2023/06/01 04:19:55;;;;;;;1.20;1.08;;;24.10;52.20;;;;;;6415064;27;20045;-55
2023/06/01 04:22:56;;;;;;;1.08;0.98;;;24.00;52.10;;;;;;6414070;27;20042;-55
2023/06/01 04:25:59;;;;;;;1.48;1.10;;;23.90;52.10;;;;;;6414978;27;20060;-55
2023/06/01 04:29:02;;;;;;;1.05;0.98;;;24.00;52.00;;;;;;6415287;27;20030;-58
2023/06/01 04:32:05;;;;;;;1.73;1.00;;;23.90;52.10;;;;;;6415571;27;20079;-56
2023/06/01 04:35:08;;;;;;;1.27;1.05;;;23.60;51.80;;;;;;6410834;27;20042;-57
2023/06/01 04:38:12;;;;;;;1.50;1.00;;;24.00;52.70;;;;;;6394376;27;20039;-57
2023/06/01 04:41:15;;;;;;;1.42;1.10;;;23.90;52.10;;;;;;6415234;27;20039;-56
2023/06/01 04:44:18;;;;;;;1.23;0.98;;;23.70;51.90;;;;;;6417513;27;20038;-56
2023/06/01 04:47:20;;;;;;;1.17;1.08;;;23.80;52.10;;;;;;6416523;27;20527;-57
2023/06/01 04:50:26;;;;;;;1.10;0.95;;;24.00;52.10;;;;;;6415704;27;20026;-57
2023/06/01 04:53:27;;;;;;;1.23;1.10;;;23.80;51.90;;;;;;6415156;27;20039;-57
2023/06/01 04:56:29;;;;;;;0.93;0.80;;;24.00;52.20;;;;;;6415083;27;20031;-57
2023/06/01 04:59:30;;;;;;;1.25;1.13;;;23.90;51.90;;;;;;6415111;27;20068;-56
2023/06/01 05:02:32;;;;;;;1.98;1.30;;;23.90;52.10;;;;;;6414170;27;20035;-57
2023/06/01 05:05:35;;;;;;;1.38;1.27;;;24.00;52.00;;;;;;6412955;27;20042;-57
2023/06/01 05:08:36;;;;;;;1.30;1.20;;;24.10;52.00;;;;;;6412779;27;20042;-58
2023/06/01 05:11:38;;;;;;;1.38;1.27;;;23.90;51.90;;;;;;6413391;27;20110;-56
2023/06/01 05:14:42;;;;;;;1.65;1.38;;;23.40;51.80;;;;;;6412476;27;20038;-54
2023/06/01 05:17:47;;;;;;;1.17;1.08;;;23.90;51.80;;;;;;6411768;27;20031;-56
2023/06/01 05:20:54;;;;;;;1.23;1.13;;;23.90;52.10;;;;;;6412904;27;20038;-56
2023/06/01 05:23:56;;;;;;;1.30;1.20;;;23.70;51.90;;;;;;6410920;27;20039;-58
2023/06/01 05:26:58;;;;;;;1.48;1.33;;;23.80;52.10;;;;;;6410057;27;20454;-56
2023/06/01 05:30:00;;;;;;;1.30;1.20;;;23.80;51.80;;;;;;6411856;27;20042;-57
2023/06/01 05:33:03;;;;;;;1.27;1.17;;;23.70;52.00;;;;;;6410767;27;20108;-56
2023/06/01 05:36:06;;;;;;;1.63;1.35;;;23.70;51.90;;;;;;6412301;27;20038;-56
2023/06/01 05:39:07;;;;;;;1.38;1.02;;;23.90;52.00;;;;;;6411944;27;20035;-56
2023/06/01 05:42:09;;;;;;;1.30;1.20;;;23.90;52.20;;;;;;6411979;27;20035;-57
2023/06/01 05:45:13;;;;;;;1.73;1.38;;;23.80;52.10;;;;;;6414265;27;20034;-57
2023/06/01 05:48:14;;;;;;;1.92;1.50;;;23.80;52.00;;;;;;6412535;27;20035;-57
2023/06/01 05:51:20;;;;;;;1.73;1.48;;;23.80;52.00;;;;;;6411527;27;20058;-57
2023/06/01 05:54:24;;;;;;;1.98;1.30;;;23.80;51.90;;;;;;6412390;27;20031;-57
2023/06/01 05:57:26;;;;;;;1.40;1.20;;;23.90;52.10;;;;;;6403954;27;20045;-56
2023/06/01 06:00:28;;;;;;;1.60;1.20;;;23.90;52.10;;;;;;6403478;27;20035;-56
2023/06/01 06:03:29;;;;;;;1.63;1.35;;;24.00;52.10;;;;;;6397721;27;20407;-57
2023/06/01 06:06:32;;;;;;;1.58;1.35;;;23.70;52.00;;;;;;6405810;27;20035;-57
2023/06/01 06:09:34;;;;;;;1.77;1.45;;;23.90;52.10;;;;;;6403780;27;20116;-57
2023/06/01 06:12:35;;;;;;;1.45;1.35;;;23.60;51.80;;;;;;6400382;27;20790;-58
2023/06/01 06:15:37;;;;;;;1.45;1.23;;;23.60;52.20;;;;;;6403555;27;20103;-57
2023/06/01 06:18:38;;;;;;;1.50;1.30;;;23.90;52.00;;;;;;6404521;27;20122;-59
2023/06/01 06:21:40;;;;;;;;;;;24.00;52.40;;;;;;6392944;27;20497;-61
2023/06/01 06:24:42;;;;;;;1.52;1.15;;;23.90;52.50;;;;;;6388212;27;19929;-62
2023/06/01 06:27:47;;;;;;;1.25;1.15;;;23.40;52.00;;;;;;6358988;27;20270;-62
2023/06/01 06:30:48;;;;;;;2.33;1.58;;;23.60;51.40;;;;;;6387235;27;20035;-63
2023/06/01 06:33:51;;;;;;;2.63;1.40;;;23.40;52.40;;;;;;6386739;27;20077;-61
2023/06/01 06:36:55;;;;;;;1.98;1.60;;;23.90;52.40;;;;;;6356105;27;20787;-63
2023/06/01 06:39:57;;;;;;;1.52;1.30;;;22.60;52.30;;;;;;6377295;27;20696;-60
2023/06/01 06:42:58;;;;;;;1.73;1.50;;;23.90;52.30;;;;;;6358431;27;20034;-60
2023/06/01 06:46:00;;;;;;;1.33;1.17;;;23.50;52.20;;;;;;6383285;27;20056;-62
2023/06/01 06:49:01;;;;;;;1.55;1.40;;;23.90;52.60;;;;;;6379644;27;20042;-62
2023/06/01 06:52:05;;;;;;;3.13;1.48;;;24.00;52.90;;;;;;6362247;27;20031;-60
2023/06/01 06:55:07;;;;;;;1.90;1.50;;;23.80;52.50;;;;;;6354144;27;20038;-61
2023/06/01 06:58:10;;;;;;;1.55;1.45;;;23.80;52.80;;;;;;6367888;27;20641;-61
2023/06/01 07:01:16;;;;;;;2.88;1.23;;;24.00;52.80;;;;;;6364758;27;20027;-61
2023/06/01 07:04:17;;;;;;;2.08;1.75;;;23.50;52.70;;;;;;6366681;27;20087;-59
2023/06/01 07:07:19;;;;;;;4.97;1.70;;;23.70;53.00;;;;;;6362522;27;20099;-59
2023/06/01 07:10:21;;;;;;;1.80;1.70;;;24.10;53.00;;;;;;6359654;27;20609;-62
2023/06/01 07:13:22;;;;;;;3.95;1.70;;;25.30;53.40;;;;;;6353714;27;20031;-59
2023/06/01 07:16:24;;;;;;;1.50;1.40;;;24.10;52.80;;;;;;6385592;27;20030;-58
2023/06/01 07:28:53;;;;;;;4.93;1.55;;;23.80;56.10;;;;;;6468541;27;20298;-60
2023/06/01 07:31:55;;;;;;;4.60;1.77;;;23.80;51.70;;;;;;6405900;27;20026;-59
2023/06/01 07:34:59;;;;;;;3.35;2.03;;;24.30;52.40;;;;;;6412116;27;20042;-59
2023/06/01 07:38:03;;;;;;;2.78;1.85;;;24.00;52.40;;;;;;6395651;27;20038;-58
2023/06/01 07:41:04;;;;;;;3.25;1.65;;;23.30;52.00;;;;;;6408553;27;20061;-60
2023/06/01 07:44:09;;;;;;;2.00;1.80;;;24.00;52.20;;;;;;6393317;27;20045;-60
2023/06/01 07:47:11;;;;;;;2.47;1.95;;;23.80;52.10;;;;;;6409397;27;20663;-59
2023/06/01 07:50:12;;;;;;;1.60;1.42;;;24.10;52.40;;;;;;6405434;27;20034;-59
2023/06/01 07:53:14;;;;;;;2.70;1.80;;;24.20;52.50;;;;;;6409325;27;20600;-60
2023/06/01 07:56:15;;;;;;;3.63;1.70;;;24.10;52.00;;;;;;6403685;27;20147;-60
2023/06/01 07:59:17;;;;;;;4.80;1.85;;;24.20;52.00;;;;;;6358922;27;20090;-59
2023/06/01 08:02:20;;;;;;;1.63;1.50;;;24.20;52.00;;;;;;6386706;27;20745;-59
2023/06/01 08:05:21;;;;;;;2.42;1.80;;;24.30;51.80;;;;;;6385065;27;20561;-60
2023/06/01 08:08:23;;;;;;;2.30;1.88;;;24.20;51.90;;;;;;6379674;27;20134;-60
2023/06/01 08:11:25;;;;;;;2.70;1.83;;;24.30;52.40;;;;;;6376948;27;20038;-60
2023/06/01 08:14:32;;;;;;;3.85;1.92;;;24.30;51.70;;;;;;6382471;27;20127;-60
2023/06/01 08:17:34;;;;;;;2.13;1.67;;;24.10;51.80;;;;;;6375091;27;20813;-60
2023/06/01 08:20:37;;;;;;;2.20;1.77;;;24.60;51.70;;;;;;6379031;27;20093;-61
2023/06/01 08:23:38;;;;;;;1.95;1.85;;;24.40;51.70;;;;;;6351404;27;20056;-61
2023/06/01 08:26:40;;;;;;;4.47;1.65;;;24.50;51.60;;;;;;6356922;27;20034;-61
2023/06/01 08:29:46;;;;;;;3.85;1.67;;;24.50;51.90;;;;;;6384339;27;20054;-55
2023/06/01 08:32:50;;;;;;;5.13;2.42;;;24.40;51.60;;;;;;6403321;27;20045;-57
2023/06/01 08:35:52;;;;;;;2.45;1.70;;;24.50;51.50;;;;;;6400258;27;20042;-58
2023/06/01 08:38:55;;;;;;;3.05;1.83;;;24.50;51.40;;;;;;6421116;27;20031;-52
2023/06/01 08:42:06;;;;;;;2.45;2.05;;;24.50;51.30;;;;;;6396776;27;20030;-57
2023/06/01 08:45:13;;;;;;;2.30;1.85;;;24.40;51.80;;;;;;6387866;27;20050;-56
2023/06/01 08:48:17;;;;;;;2.83;2.05;;;24.50;51.20;;;;;;6407924;27;20435;-56
2023/06/01 08:51:19;;;;;;;3.88;1.95;;;24.60;51.20;;;;;;6411065;27;20254;-55
2023/06/01 08:54:21;;;;;;;4.05;2.00;;;24.50;51.00;;;;;;6418616;27;20043;-55
2023/06/01 08:57:22;;;;;;;3.35;2.10;;;24.60;51.00;;;;;;6418095;27;20022;-54
2023/06/01 09:00:25;;;;;;;1.70;1.60;;;24.60;50.90;;;;;;6417443;27;20045;-53
2023/06/01 09:03:27;;;;;;;3.15;1.60;;;24.70;50.80;;;;;;6402700;27;20052;-55
2023/06/01 09:06:29;;;;;;;2.00;1.73;;;24.60;50.80;;;;;;6400953;27;20254;-55
2023/06/01 09:09:32;;;;;;;2.42;1.80;;;24.50;50.70;;;;;;6374437;27;20417;-52
2023/06/01 09:12:33;;;;;;;2.78;1.90;;;24.70;50.70;;;;;;6405866;27;20124;-55
2023/06/01 09:15:49;;;;;;;2.83;1.48;;;24.70;50.70;;;;;;6416936;27;20041;-53
2023/06/01 09:18:52;;;;;;;1.70;1.60;;;24.70;50.60;;;;;;6408485;27;20255;-55
2023/06/01 09:21:58;;;;;;;3.42;1.95;;;24.50;50.60;;;;;;6392018;27;20336;-54
2023/06/01 09:25:00;;;;;;;3.30;1.98;;;24.80;50.50;;;;;;6371965;27;20030;-54
2023/06/01 09:28:02;;;;;;;2.22;2.03;;;24.70;50.30;;;;;;6409782;27;20041;-53
2023/06/01 09:31:04;;;;;;;2.70;1.98;;;24.00;50.00;;;;;;6407892;27;20169;-56
2023/06/01 09:34:07;;;;;;;2.00;1.83;;;24.70;50.10;;;;;;6417360;27;20047;-52
2023/06/01 09:37:08;;;;;;;2.22;2.00;;;24.70;50.10;;;;;;6398438;27;20035;-53
2023/06/01 09:40:18;;;;;;;2.33;1.88;;;24.80;50.10;;;;;;6417368;27;20038;-49
2023/06/01 09:43:20;;;;;;;2.85;2.00;;;24.80;50.00;;;;;;6423467;27;20039;-52
2023/06/01 09:46:22;;;;;;;2.13;1.92;;;24.90;50.20;;;;;;6420361;27;20042;-52
2023/06/01 09:49:26;;;;;;;2.40;2.20;;;24.90;50.00;;;;;;6425261;27;20027;-53
2023/06/01 09:52:28;;;;;;;2.20;2.00;;;24.80;49.90;;;;;;6422036;22;20040;-92
2023/06/01 09:55:30;;;;;;;2.83;1.90;;;24.50;51.30;;;;;;6283962;28;20040;-89
2023/06/01 09:58:34;;;;;;;2.05;1.88;;;26.80;52.60;;;;;;6284120;28;20161;-89
2023/06/01 10:01:39;;;;;;;1.98;1.65;;;23.20;50.10;;;;;;6293913;28;20747;-88
2023/06/01 10:04:48;;;;;;;1.85;1.75;;;22.90;51.40;;;;;;6309204;28;20610;-90
2023/06/01 10:07:54;;;;;;;2.00;1.50;;;24.50;52.70;;;;;;6337914;28;20040;-89
2023/06/01 10:10:57;;;;;;;3.97;1.95;;;26.10;57.00;;;;;;6469648;22;20042;-52
2023/06/01 10:14:01;;;;;;;2.00;1.80;;;24.90;49.70;;;;;;6347707;27;20054;-52
2023/06/01 10:17:04;;;;;;;2.42;1.70;;;24.30;49.30;;;;;;6351256;27;20039;-55
2023/06/01 10:20:07;;;;;;;2.08;1.80;;;24.70;49.40;;;;;;6345276;27;20024;-52
2023/06/01 10:23:08;;;;;;;2.08;1.80;;;24.80;49.40;;;;;;6347531;27;20036;-52
2023/06/01 10:26:27;;;;;;;2.65;1.63;;;24.70;49.30;;;;;;6345212;27;20047;-50
2023/06/01 10:29:30;;;;;;;2.40;1.52;;;24.40;49.10;;;;;;6343449;27;20195;-53
2023/06/01 10:32:45;;;;;;;2.28;1.45;;;24.70;49.20;;;;;;6342695;27;20096;-55
2023/06/01 10:35:53;;;;;;;1.63;1.52;;;25.10;49.40;;;;;;6343775;27;20047;-52
2023/06/01 10:39:23;;;;;;;1.67;1.58;;;24.80;49.20;;;;;;6340908;27;20257;-54
2023/06/01 10:42:40;;;;;;;1.73;1.45;;;24.90;49.30;;;;;;6338162;27;20092;-52
2023/06/01 10:45:42;;;;;;;2.03;1.35;;;24.70;49.20;;;;;;6340070;27;20162;-54
2023/06/01 10:48:52;;;;;;;1.92;1.73;;;24.70;49.10;;;;;;6338731;27;20032;-51
2023/06/01 10:52:23;;;;;;;1.65;1.50;;;24.70;49.10;;;;;;6338313;27;20040;-53
2023/06/01 10:55:26;;;;;;;2.10;1.60;;;24.80;49.10;;;;;;6336123;28;20093;-55
2023/06/01 10:58:29;;;;;;;1.60;1.40;;;24.80;49.30;;;;;;6335251;28;20027;-54
2023/06/01 11:01:33;;;;;;;1.60;1.50;;;24.90;49.20;;;;;;6338897;27;20040;-52
2023/06/01 11:04:36;;;;;;;2.13;1.80;;;24.80;49.10;;;;;;6338252;27;20043;-55
2023/06/01 11:07:39;;;;;;;2.67;1.98;;;24.70;49.00;;;;;;6336951;27;20044;-51
2023/06/01 11:10:55;;;;;;;1.70;1.40;;;25.20;49.30;;;;;;6339174;27;20065;-55
2023/06/01 11:14:12;;;;;;;1.80;1.67;;;24.80;49.20;;;;;;6331637;28;20257;-55
2023/06/01 11:17:30;;;;;;;3.90;1.98;;;24.80;49.10;;;;;;6328568;28;20072;-55
2023/06/01 11:20:39;;;;;;;4.28;1.63;;;24.90;49.10;;;;;;6329301;28;20056;-52
2023/06/01 11:23:41;;;;;;;1.45;1.35;;;24.80;49.10;;;;;;6328907;28;20047;-55
2023/06/01 11:26:44;;;;;;;1.77;1.67;;;24.90;49.70;;;;;;6328942;28;20047;-51
2023/06/01 11:29:48;;;;;;;1.90;1.58;;;24.70;49.00;;;;;;6310352;28;20040;-50
2023/06/01 11:32:55;;;;;;;2.20;1.55;;;24.80;49.10;;;;;;6313948;28;20028;-55
2023/06/01 11:35:59;;;;;;;1.65;1.50;;;24.50;49.00;;;;;;6320715;28;20081;-56
2023/06/01 11:39:00;;;;;;;1.83;1.65;;;24.70;49.20;;;;;;6322007;28;20709;-54
2023/06/01 11:42:20;;;;;;;1.42;1.33;;;24.80;49.10;;;;;;6324359;28;20028;-55
2023/06/01 11:45:21;;;;;;;1.73;1.60;;;25.00;49.20;;;;;;6325330;28;20028;-55
2023/06/01 11:48:23;;;;;;;2.67;1.60;;;24.70;49.10;;;;;;6322878;28;20047;-50
2023/06/01 11:51:25;;;;;;;1.63;1.52;;;24.90;49.10;;;;;;6318072;28;20055;-56
2023/06/01 11:54:28;;;;;;;1.50;1.40;;;24.90;49.10;;;;;;6311497;28;20055;-53
2023/06/01 11:57:29;;;;;;;1.67;1.48;;;24.80;49.10;;;;;;6325133;28;20028;-51
2023/06/01 12:00:31;;;;;;;1.65;1.38;;;24.80;49.00;;;;;;6306686;28;20052;-49
2023/06/01 12:03:33;;;;;;;1.55;1.45;;;24.90;49.20;;;;;;6318756;28;20036;-53
2023/06/01 12:06:35;;;;;;;2.55;1.60;;;24.90;49.00;;;;;;6313743;28;20066;-53
2023/06/01 12:09:37;;;;;;;1.67;1.50;;;24.90;49.00;;;;;;6323962;27;20043;-52
2023/06/01 12:12:42;;;;;;;1.70;1.60;;;25.10;49.00;;;;;;6320308;27;20044;-51
2023/06/01 12:15:45;;;;;;;1.40;1.27;;;25.00;48.90;;;;;;6327459;27;20024;-57
2023/06/01 12:18:46;;;;;;;1.60;1.23;;;25.00;48.80;;;;;;6331642;28;20309;-49
2023/06/01 12:21:50;;;;;;;1.30;1.20;;;24.90;48.70;;;;;;6336080;28;20331;-52
2023/06/01 12:24:52;;;;;;;1.50;1.40;;;24.80;48.60;;;;;;6346516;27;20079;-55
2023/06/01 12:28:02;;;;;;;1.88;1.50;;;25.10;48.80;;;;;;6346862;27;20040;-55
2023/06/01 12:31:12;;;;;;;3.08;1.60;;;25.00;48.70;;;;;;6335758;28;20088;-53
2023/06/01 12:34:17;;;;;;;1.45;1.30;;;25.10;48.70;;;;;;7184256;22;20051;-89
2023/06/01 12:37:21;;;;;;;1.60;1.50;;;20.80;49.80;;;;;;6314310;28;20044;-90
2023/06/01 12:40:26;;;;;;;1.30;1.20;;;23.90;51.00;;;;;;6299560;28;20054;-89
2023/06/01 12:43:35;;;;;;;1.60;1.42;;;24.70;52.60;;;;;;6271644;28;20649;-89
2023/06/01 12:46:40;;;;;;;1.40;1.30;;;22.50;51.50;;;;;;6295030;28;20107;-90
2023/06/01 12:50:01;;;;;;;1.10;0.90;;;25.00;50.50;;;;;;6559985;22;20036;-53
2023/06/01 12:53:03;;;;;;;1.23;0.90;;;25.20;48.60;;;;;;6320222;28;20043;-53
2023/06/01 12:56:06;;;;;;;1.23;1.10;;;24.70;62.70;;;;;;6309586;28;20155;-58
2023/06/01 12:59:08;;;;;;;1.10;0.98;;;25.10;48.70;;;;;;6304117;28;20025;-56
2023/06/01 13:02:13;;;;;;;1.10;1.00;;;24.90;64.30;;;;;;6337786;22;20055;-90
2023/06/01 13:05:31;;;;;;;1.70;1.08;;;24.90;49.90;;;;;;6313857;28;20060;-92
2023/06/01 13:08:37;;;;;;;1.35;1.23;;;24.60;48.00;;;;;;6314190;22;20055;-53
2023/06/01 13:11:41;;;;;;;1.35;1.23;;;25.10;49.40;;;;;;6326023;28;20055;-56
2023/06/01 13:14:46;;;;;;;2.25;1.20;;;24.80;49.70;;;;;;6315335;28;20035;-56
2023/06/01 13:17:47;;;;;;;1.25;1.10;;;25.30;49.60;;;;;;6324865;28;20048;-58
2023/06/01 13:20:50;;;;;;;2.28;1.10;;;25.10;49.80;;;;;;6297381;28;20757;-57
2023/06/01 13:23:52;;;;;;;1.27;1.10;;;25.60;65.90;;;;;;6310104;28;20044;-58
2023/06/01 13:26:54;;;;;;;1.15;1.05;;;25.20;73.70;;;;;;6300382;28;20036;-57
2023/06/01 13:29:58;;;;;;;1.10;0.90;;;25.30;65.30;;;;;;6301498;28;20047;-54
2023/06/01 13:33:00;;;;;;;1.10;1.00;;;25.00;65.10;;;;;;6319404;28;20024;-55
2023/06/01 13:36:02;;;;;;;1.25;1.15;;;25.10;48.60;;;;;;6340596;28;20047;-54
2023/06/01 13:39:04;;;;;;;1.13;1.02;;;25.30;48.80;;;;;;6329082;28;20044;-58
2023/06/01 13:42:08;;;;;;;1.92;1.20;;;25.20;48.80;;;;;;6269448;28;20020;-56
2023/06/01 13:45:10;;;;;;;0.80;0.80;;;25.10;48.70;;;;;;6297193;28;20055;-58
2023/06/01 13:48:14;;;;;;;1.38;1.27;;;25.10;48.70;;;;;;6264280;28;20048;-56
2023/06/01 13:51:22;;;;;;;1.30;1.20;;;25.30;48.90;;;;;;6275290;28;20024;-56
2023/06/01 13:54:24;;;;;;;1.15;1.05;;;25.10;48.60;;;;;;6336845;28;20047;-50
2023/06/01 13:57:26;;;;;;;0.95;0.80;;;25.20;48.50;;;;;;6348842;28;20099;-53
2023/06/01 14:00:48;;;;;;;0.88;0.88;;;24.90;62.80;;;;;;6345679;22;20019;-91
2023/06/01 14:03:51;;;;;;;2.85;1.50;;;;;;;;;;6298878;28;20203;-92
2023/06/01 14:06:55;;;;;;;1.13;1.00;;;;;;;;;;6307248;28;20032;-92
2023/06/01 14:09:57;;;;;;;1.92;0.90;;;25.00;62.60;;;;;;6293499;22;20644;-58
2023/06/01 14:12:59;;;;;;;1.50;0.95;;;25.20;64.60;;;;;;6308053;28;20040;-55
2023/06/01 14:16:00;;;;;;;2.58;1.05;;;25.20;48.50;;;;;;6315639;28;20028;-52
2023/06/01 14:22:58;;;;;;;1.30;1.20;;;25.10;68.50;;;;;;6175748;28;20035;-54
2023/06/01 14:26:00;;;;;;;1.00;0.90;;;25.40;50.30;;;;;;6174687;28;20031;-53
2023/06/01 14:29:04;;;;;;;1.38;1.02;;;;;;;;;;6303181;23;20069;-92
2023/06/01 14:32:09;;;;;;;1.17;0.90;;;25.10;47.70;;;;;;6134196;28;20174;-91
2023/06/01 14:35:15;;;;;;;1.00;0.85;;;;;;;;;;6136023;28;20125;-90
2023/06/01 14:38:17;;;;;;;1.30;1.20;;;25.10;47.80;;;;;;6139147;28;20108;-90
2023/06/01 14:41:19;;;;;;;1.10;1.00;;;26.00;51.10;;;;;;6132619;28;20150;-91
2023/06/01 14:44:21;;;;;;;1.27;1.17;;;27.40;52.50;;;;;;6120493;28;20788;-89
2023/06/01 14:47:23;;;;;;;2.00;1.30;;;21.70;49.70;;;;;;6156863;28;20094;-89
2023/06/01 14:50:28;;;;;;;1.17;1.08;;;24.10;52.00;;;;;;6134266;28;20098;-91
2023/06/01 14:53:31;;;;;;;1.00;0.90;;;23.10;49.60;;;;;;6141644;28;20344;-92
2023/06/01 14:56:37;;;;;;;1.17;1.08;;;22.00;50.10;;;;;;6150273;28;20042;-89
2023/06/01 14:59:39;;;;;;;1.20;1.10;;;22.40;49.60;;;;;;6136435;28;20076;-90
2023/06/01 15:02:52;;;;;;;1.25;1.15;;;24.70;51.10;;;;;;6121681;28;20035;-90
2023/06/01 15:05:55;;;;;;;1.10;1.00;;;26.80;51.90;;;;;;6124299;28;20825;-89
2023/06/01 15:08:57;;;;;;;1.10;1.00;;;24.70;50.60;;;;;;6116252;28;20062;-90
2023/06/01 15:12:08;;;;;;;1.45;1.05;;;22.90;51.90;;;;;;6122146;28;20042;-90
2023/06/01 15:18:45;;;;;;;1.20;1.10;;;28.30;55.20;;;;;;6137713;28;20054;-90
2023/06/01 15:21:47;;;;;;;1.20;1.10;;;25.50;51.10;;;;;;6127329;28;20133;-90
2023/06/01 15:24:49;;;;;;;1.30;1.20;;;25.70;52.00;;;;;;6115342;28;20035;-89
2023/06/01 15:27:51;;;;;;;1.48;1.38;;;24.10;50.90;;;;;;6091508;28;20042;-90
2023/06/01 15:30:53;;;;;;;1.13;1.02;;;23.70;52.30;;;;;;6126136;28;20154;-90
2023/06/01 15:33:55;;;;;;;1.30;1.17;;;22.40;49.70;;;;;;6134278;28;20042;-89
2023/06/01 15:36:57;;;;;;;1.33;1.13;;;24.90;51.60;;;;;;6136854;28;20679;-89
2023/06/01 15:39:59;;;;;;;1.40;1.30;;;23.20;51.10;;;;;;6129512;28;20702;-89
2023/06/01 15:43:01;;;;;;;1.17;1.08;;;24.70;53.20;;;;;;6140670;28;20078;-89
2023/06/01 15:46:03;;;;;;;1.33;1.23;;;22.60;51.00;;;;;;6103941;28;20045;-89
2023/06/01 15:49:06;;;;;;;1.88;1.58;;;22.80;50.20;;;;;;6103039;28;20041;-89
2023/06/01 15:52:08;;;;;;;1.50;1.40;;;;;;;;;;6119682;28;20039;-90
2023/06/01 15:55:10;;;;;;;1.55;1.35;;;25.40;50.00;;;;;;6123058;28;20102;-89
2023/06/01 15:58:12;;;;;;;1.30;1.20;;;22.50;52.40;;;;;;6144758;28;20061;-90
2023/06/01 16:01:15;;;;;;;1.33;1.15;;;24.70;52.10;;;;;;6152940;28;20043;-90
2023/06/01 16:04:33;;;;;;;2.70;1.63;;;22.60;52.10;;;;;;6284056;23;20094;-54
2023/06/01 16:07:35;;;;;;;2.28;1.27;;;24.90;50.80;;;;;;6177444;28;20057;-54
2023/06/01 16:10:37;;;;;;;1.48;1.38;;;25.30;51.80;;;;;;6412049;23;20047;-54
2023/06/01 16:17:00;;;;;;;1.50;1.40;;;25.10;51.20;;;;;;6986173;23;20031;-53
2023/06/01 16:20:03;;;;;;;1.90;1.50;;;25.10;51.80;;;;;;6177399;28;20047;-54